createdAt,value
2018-05-08T00:01:19.816Z,17.90
2018-05-08T00:03:46.266Z,17.80
2018-05-08T00:06:12.515Z,17.70
2018-05-08T00:08:40.123Z,17.60
2018-05-08T00:11:06.345Z,17.60
2018-05-08T00:13:33.282Z,17.30
2018-05-08T00:16:00.260Z,17.30
2018-05-08T00:18:27.093Z,17.30
2018-05-08T00:20:53.297Z,17.30
2018-05-08T00:23:19.586Z,17.10
2018-05-08T00:25:47.351Z,17.00
2018-05-08T00:28:13.607Z,17.00
2018-05-08T00:30:40.576Z,16.80
2018-05-08T00:33:06.819Z,16.80
2018-05-08T00:35:33.043Z,16.80
2018-05-08T00:37:59.287Z,16.70
2018-05-08T00:40:25.516Z,16.50
2018-05-08T00:42:51.737Z,16.50
2018-05-08T00:45:17.954Z,16.40
2018-05-08T00:47:44.161Z,16.40
2018-05-08T00:50:11.115Z,16.40
2018-05-08T00:52:38.076Z,16.50
2018-05-08T00:55:10.536Z,16.50
2018-05-08T00:57:36.773Z,16.50
2018-05-08T01:00:03.020Z,16.30
2018-05-08T01:02:31.413Z,16.10
2018-05-08T01:04:57.665Z,16.10
2018-05-08T01:07:28.192Z,16.00
2018-05-08T01:09:55.603Z,16.00
2018-05-08T01:12:21.877Z,16.00
2018-05-08T01:14:48.089Z,16.00
2018-05-08T01:17:14.319Z,15.90
2018-05-08T01:19:40.566Z,15.90
2018-05-08T01:22:07.620Z,15.90
2018-05-08T01:24:34.578Z,15.80
2018-05-08T01:27:07.575Z,15.70
2018-05-08T01:29:33.793Z,15.70
2018-05-08T01:32:00.061Z,15.70
2018-05-08T01:34:27.110Z,15.90
2018-05-08T01:36:55.369Z,15.80
2018-05-08T01:39:21.637Z,15.80
2018-05-08T01:41:49.163Z,15.60
2018-05-08T01:44:15.450Z,15.60
2018-05-08T01:46:42.428Z,15.40
2018-05-08T01:49:08.668Z,15.40
2018-05-08T01:51:35.093Z,15.40
2018-05-08T01:54:06.784Z,15.20
2018-05-08T01:56:34.856Z,15.20
2018-05-08T01:59:01.136Z,15.20
2018-05-08T02:01:28.683Z,15.40
2018-05-08T02:03:54.890Z,15.40
2018-05-08T02:06:21.921Z,15.20
2018-05-08T02:08:48.863Z,15.20
2018-05-08T02:11:15.842Z,15.10
2018-05-08T02:13:42.100Z,15.10
2018-05-08T02:16:08.395Z,15.20
2018-05-08T02:18:34.660Z,15.00
2018-05-08T02:21:07.093Z,15.10
2018-05-08T02:23:33.345Z,15.10
2018-05-08T02:25:59.869Z,15.00
2018-05-08T02:28:26.004Z,15.00
2018-05-08T02:30:52.224Z,15.10
2018-05-08T02:33:26.140Z,14.90
2018-05-08T02:35:52.338Z,14.90
2018-05-08T02:38:19.289Z,14.70
2018-05-08T02:40:45.546Z,14.70
2018-05-08T02:43:11.810Z,14.80
2018-05-08T02:45:39.160Z,14.60
2018-05-08T02:48:11.556Z,14.50
2018-05-08T02:53:37.148Z,14.50
2018-05-08T02:56:03.657Z,14.40
2018-05-08T02:58:29.872Z,14.30
2018-05-08T03:00:56.838Z,14.30
2018-05-08T03:03:29.257Z,14.30
2018-05-08T03:05:55.490Z,14.30
2018-05-08T03:08:22.456Z,14.30
2018-05-08T03:10:48.751Z,14.20
2018-05-08T03:13:15.000Z,14.20
2018-05-08T03:15:41.232Z,14.10
2018-05-08T03:18:07.441Z,14.10
2018-05-08T03:20:33.639Z,14.10
2018-05-08T03:23:05.910Z,14.00
2018-05-08T03:25:38.168Z,13.90
2018-05-08T03:28:10.624Z,13.90
2018-05-08T03:33:15.475Z,13.80
2018-05-08T03:35:41.732Z,13.80
2018-05-08T03:38:07.994Z,13.80
2018-05-08T03:40:34.967Z,13.80
2018-05-08T03:43:01.199Z,13.70
2018-05-08T03:45:27.438Z,13.70
2018-05-08T03:47:54.585Z,13.70
2018-05-08T03:50:20.906Z,13.70
2018-05-08T03:53:05.094Z,13.70
2018-05-08T03:55:31.320Z,13.60
2018-05-08T03:57:57.596Z,13.60
2018-05-08T04:00:40.036Z,13.50
2018-05-08T04:03:18.491Z,13.50
2018-05-08T04:05:54.990Z,13.60
2018-05-08T04:08:36.174Z,13.60
2018-05-08T04:11:02.394Z,13.50
2018-05-08T04:13:29.413Z,13.40
2018-05-08T04:16:01.743Z,13.40
2018-05-08T04:18:28.110Z,13.50
2018-05-08T04:20:55.340Z,13.50
2018-05-08T04:23:23.292Z,13.50
2018-05-08T04:25:49.547Z,13.50
2018-05-08T04:28:21.981Z,13.50
2018-05-08T04:30:48.225Z,13.50
2018-05-08T04:33:14.434Z,13.60
2018-05-08T04:35:40.891Z,13.50
2018-05-08T04:38:14.045Z,13.50
2018-05-08T04:40:55.970Z,13.50
2018-05-08T04:43:22.753Z,13.60
2018-05-08T04:45:48.949Z,13.60
2018-05-08T04:48:21.255Z,13.70
2018-05-08T04:50:47.493Z,13.70
2018-05-08T04:53:13.728Z,13.80
2018-05-08T04:55:40.696Z,14.20
2018-05-08T04:58:13.283Z,14.30
2018-05-08T05:00:39.521Z,14.20
2018-05-08T05:03:06.537Z,14.40
2018-05-08T05:05:33.067Z,14.40
2018-05-08T05:08:00.326Z,14.60
2018-05-08T05:10:28.723Z,14.60
2018-05-08T05:12:54.957Z,14.50
2018-05-08T05:15:21.164Z,14.70
2018-05-08T05:17:47.422Z,14.90
2018-05-08T05:20:13.654Z,15.10
2018-05-08T05:22:40.193Z,15.10
2018-05-08T05:25:07.229Z,15.30
2018-05-08T05:27:33.469Z,15.30
2018-05-08T05:29:59.716Z,15.40
2018-05-08T05:32:25.940Z,15.50
2018-05-08T05:34:52.180Z,15.50
2018-05-08T05:37:19.118Z,15.90
2018-05-08T05:39:45.337Z,15.90
2018-05-08T05:42:11.566Z,16.10
2018-05-08T05:44:37.820Z,16.20
2018-05-08T05:47:04.780Z,16.40
2018-05-08T05:49:31.704Z,16.40
2018-05-08T05:51:58.672Z,16.60
2018-05-08T05:54:25.620Z,16.80
2018-05-08T05:56:51.837Z,16.70
2018-05-08T05:59:18.784Z,17.10
2018-05-08T06:01:45.061Z,17.10
2018-05-08T06:04:11.493Z,17.10
2018-05-08T06:06:37.723Z,17.20
2018-05-08T06:09:05.455Z,17.40
2018-05-08T06:11:31.693Z,17.40
2018-05-08T06:13:58.058Z,17.60
2018-05-08T06:16:25.053Z,17.90
2018-05-08T06:18:51.401Z,17.80
2018-05-08T06:21:17.700Z,18.00
2018-05-08T06:23:44.009Z,18.00
2018-05-08T06:26:10.308Z,18.10
2018-05-08T06:28:36.569Z,18.10
2018-05-08T06:31:02.799Z,18.30
2018-05-08T06:33:29.783Z,18.40
2018-05-08T06:35:56.031Z,18.30
2018-05-08T06:38:22.355Z,18.40
2018-05-08T06:40:48.841Z,18.50
2018-05-08T06:43:15.088Z,18.60
2018-05-08T06:45:41.353Z,18.80
2018-05-08T06:48:07.556Z,18.90
2018-05-08T06:50:33.788Z,19.00
2018-05-08T06:53:00.040Z,19.30
2018-05-08T06:55:26.247Z,19.70
2018-05-08T06:57:52.524Z,20.30
2018-05-08T07:00:18.850Z,22.00
2018-05-08T07:02:45.792Z,26.40
2018-05-08T07:05:11.992Z,26.30
2018-05-08T07:07:38.298Z,28.10
2018-05-08T07:10:04.509Z,29.20
2018-05-08T07:12:30.804Z,30.20
2018-05-08T07:14:57.035Z,30.10
2018-05-08T07:17:23.273Z,30.70
2018-05-08T07:19:50.568Z,32.00
2018-05-08T07:22:18.276Z,33.80
2018-05-08T07:24:44.429Z,33.70
2018-05-08T07:27:10.649Z,34.30
2018-05-08T07:29:36.872Z,34.30
2018-05-08T07:32:03.837Z,35.30
2018-05-08T07:34:30.784Z,34.90
2018-05-08T07:36:57.063Z,34.90
2018-05-08T07:39:23.279Z,34.30
2018-05-08T07:41:49.525Z,34.70
2018-05-08T07:44:15.893Z,34.50
2018-05-08T07:46:42.122Z,34.40
2018-05-08T07:49:08.341Z,34.90
2018-05-08T07:51:35.315Z,35.20
2018-05-08T07:54:01.755Z,35.20
2018-05-08T07:56:28.844Z,34.80
2018-05-08T07:58:55.335Z,34.90
2018-05-08T08:01:21.571Z,34.80
2018-05-08T08:03:47.994Z,35.10
2018-05-08T08:06:14.355Z,34.70
2018-05-08T08:08:40.730Z,34.90
2018-05-08T08:11:07.112Z,34.90
2018-05-08T08:13:33.427Z,35.40
2018-05-08T08:15:59.669Z,36.40
2018-05-08T08:18:26.159Z,36.50
2018-05-08T08:20:52.540Z,36.80
2018-05-08T08:23:18.982Z,36.50
2018-05-08T08:25:46.735Z,37.20
2018-05-08T08:28:13.268Z,36.90
2018-05-08T08:30:39.551Z,36.20
2018-05-08T08:33:05.837Z,36.80
2018-05-08T08:35:32.846Z,37.30
2018-05-08T08:37:59.064Z,37.30
2018-05-08T08:40:25.352Z,36.60
2018-05-08T08:42:52.308Z,37.00
2018-05-08T08:45:18.576Z,37.10
2018-05-08T08:47:44.838Z,37.50
2018-05-08T08:50:11.189Z,37.90
2018-05-08T08:52:38.311Z,37.50
2018-05-08T08:55:04.573Z,37.40
2018-05-08T08:57:30.918Z,37.40
2018-05-08T08:59:57.228Z,38.00
2018-05-08T09:02:24.248Z,38.10
2018-05-08T09:04:50.503Z,38.10
2018-05-08T09:07:18.840Z,38.10
2018-05-08T09:09:45.216Z,38.20
2018-05-08T09:12:13.079Z,38.80
2018-05-08T09:14:40.016Z,38.70
2018-05-08T09:17:07.269Z,38.90
2018-05-08T09:19:33.605Z,37.70
2018-05-08T09:22:00.610Z,35.90
2018-05-08T09:24:26.848Z,35.90
2018-05-08T09:26:53.180Z,36.40
2018-05-08T09:29:19.434Z,35.90
2018-05-08T09:31:46.646Z,36.60
2018-05-08T09:34:13.913Z,36.60
2018-05-08T09:36:40.147Z,36.70
2018-05-08T09:39:06.391Z,37.00
2018-05-08T09:41:33.400Z,36.70
2018-05-08T09:43:59.961Z,36.70
2018-05-08T09:46:26.223Z,36.20
2018-05-08T09:48:52.519Z,36.50
2018-05-08T09:51:19.554Z,35.80
2018-05-08T09:53:45.752Z,35.70
2018-05-08T09:56:11.984Z,36.20
2018-05-08T09:58:38.203Z,36.90
2018-05-08T10:01:04.494Z,37.70
2018-05-08T10:03:31.510Z,37.80
2018-05-08T10:05:57.994Z,37.70
2018-05-08T10:08:24.601Z,38.50
2018-05-08T10:10:51.024Z,38.60
2018-05-08T10:13:21.233Z,38.70
2018-05-08T10:15:48.265Z,38.10
2018-05-08T10:18:15.316Z,38.10
2018-05-08T10:20:41.539Z,38.10
2018-05-08T10:23:07.778Z,38.00
2018-05-08T10:25:34.017Z,38.30
2018-05-08T10:28:00.289Z,37.80
2018-05-08T10:30:26.563Z,37.80
2018-05-08T10:32:54.934Z,35.70
2018-05-08T10:35:21.162Z,35.70
2018-05-08T10:37:47.422Z,35.50
2018-05-08T10:40:14.444Z,34.80
2018-05-08T10:42:40.700Z,34.70
2018-05-08T10:45:07.654Z,34.70
2018-05-08T10:47:34.670Z,34.50
2018-05-08T10:50:00.989Z,34.40
2018-05-08T10:52:27.464Z,34.40
2018-05-08T10:54:53.746Z,34.00
2018-05-08T10:57:19.960Z,34.20
2018-05-08T10:59:46.164Z,33.40
2018-05-08T11:02:12.375Z,33.60
2018-05-08T11:04:39.340Z,33.30
2018-05-08T11:07:05.604Z,33.30
2018-05-08T11:09:31.815Z,32.70
2018-05-08T11:11:58.833Z,32.40
2018-05-08T11:14:25.061Z,32.30
2018-05-08T11:16:52.023Z,32.20
2018-05-08T11:19:18.258Z,32.10
2018-05-08T11:21:44.507Z,31.80
2018-05-08T11:24:10.851Z,31.70
2018-05-08T11:26:37.135Z,31.90
2018-05-08T11:29:03.552Z,31.70
2018-05-08T11:31:29.781Z,31.60
2018-05-08T11:33:56.042Z,31.70
2018-05-08T11:36:22.284Z,31.40
2018-05-08T11:38:48.520Z,31.20
2018-05-08T11:41:14.740Z,31.40
2018-05-08T11:43:40.975Z,31.30
2018-05-08T11:46:07.192Z,31.30
2018-05-08T11:48:33.413Z,31.20
2018-05-08T11:50:59.644Z,31.30
2018-05-08T11:53:25.913Z,31.00
2018-05-08T11:55:52.871Z,31.00
2018-05-08T11:58:19.090Z,31.00
2018-05-08T12:00:46.086Z,31.00
2018-05-08T12:03:12.293Z,31.00
2018-05-08T12:05:38.536Z,31.20
2018-05-08T12:08:04.788Z,31.10
2018-05-08T12:10:31.006Z,30.80
2018-05-08T12:12:57.252Z,31.00
2018-05-08T12:15:23.512Z,30.90
2018-05-08T12:17:49.832Z,30.90
2018-05-08T12:20:17.094Z,30.60
2018-05-08T12:22:43.425Z,30.60
2018-05-08T12:25:09.645Z,30.60
2018-05-08T12:27:36.602Z,30.40
2018-05-08T12:30:02.856Z,30.30
2018-05-08T12:32:29.084Z,30.40
2018-05-08T12:34:55.308Z,30.20
2018-05-08T12:37:21.526Z,30.30
2018-05-08T12:39:47.992Z,30.40
2018-05-08T12:42:14.313Z,30.60
2018-05-08T12:44:40.602Z,30.70
2018-05-08T12:47:06.821Z,30.50
2018-05-08T12:49:33.089Z,30.20
2018-05-08T12:51:59.333Z,30.10
2018-05-08T12:54:25.548Z,30.20
2018-05-08T12:56:51.949Z,30.30
2018-05-08T12:59:18.992Z,30.40
2018-05-08T13:01:45.244Z,30.40
2018-05-08T13:04:11.481Z,30.50
2018-05-08T13:06:37.709Z,30.20
2018-05-08T13:09:04.851Z,30.40
2018-05-08T13:11:31.081Z,30.40
2018-05-08T13:13:57.303Z,30.30
2018-05-08T13:16:23.576Z,30.40
2018-05-08T13:18:49.846Z,30.30
2018-05-08T13:21:16.140Z,30.10
2018-05-08T13:23:42.356Z,29.90
2018-05-08T13:26:08.819Z,30.00
2018-05-08T13:28:35.070Z,30.10
2018-05-08T13:31:01.334Z,29.70
2018-05-08T13:33:28.297Z,29.90
2018-05-08T13:35:55.293Z,29.90
2018-05-08T13:38:21.534Z,29.90
2018-05-08T13:40:47.747Z,30.00
2018-05-08T13:43:13.961Z,29.80
2018-05-08T13:45:40.164Z,29.70
2018-05-08T13:48:06.456Z,29.40
2018-05-08T13:50:32.675Z,29.60
2018-05-08T13:52:58.934Z,29.50
2018-05-08T13:55:25.572Z,29.40
2018-05-08T13:57:51.803Z,29.40
2018-05-08T14:00:18.067Z,29.50
2018-05-08T14:02:44.319Z,29.40
2018-05-08T14:05:10.880Z,29.20
2018-05-08T14:07:37.283Z,29.20
2018-05-08T14:10:04.105Z,29.20
2018-05-08T14:12:31.037Z,29.10
2018-05-08T14:14:59.529Z,28.90
2018-05-08T14:17:26.264Z,28.90
2018-05-08T14:19:52.543Z,29.00
2018-05-08T14:22:19.703Z,28.90
2018-05-08T14:24:46.240Z,28.80
2018-05-08T14:27:12.820Z,29.00
2018-05-08T14:29:39.511Z,28.90
2018-05-08T14:32:09.326Z,29.00
2018-05-08T14:34:35.881Z,29.00
2018-05-08T14:37:03.345Z,28.80
2018-05-08T14:39:29.552Z,28.80
2018-05-08T14:41:56.752Z,28.90
2018-05-08T14:44:23.037Z,28.90
2018-05-08T14:46:49.312Z,28.90
2018-05-08T14:49:15.766Z,28.80
2018-05-08T14:51:41.878Z,28.90
2018-05-08T14:54:08.135Z,28.90
2018-05-08T14:56:34.417Z,28.70
2018-05-08T14:59:00.703Z,28.50
2018-05-08T15:01:26.976Z,28.70
2018-05-08T15:03:53.545Z,28.80
2018-05-08T15:06:19.820Z,28.70
2018-05-08T15:08:46.945Z,27.50
2018-05-08T15:11:13.237Z,27.40
2018-05-08T15:13:39.916Z,27.40
2018-05-08T15:16:06.350Z,27.50
2018-05-08T15:18:35.024Z,28.00
2018-05-08T15:21:01.675Z,28.00
2018-05-08T15:23:29.214Z,28.00
2018-05-08T15:25:55.992Z,28.10
2018-05-08T15:28:22.468Z,28.20
2018-05-08T15:30:48.825Z,28.00
2018-05-08T15:33:15.148Z,28.10
2018-05-08T15:35:41.671Z,27.90
2018-05-08T15:38:08.093Z,27.90
2018-05-08T15:40:34.289Z,28.00
2018-05-08T15:43:00.623Z,28.10
2018-05-08T15:45:26.944Z,28.10
2018-05-08T15:47:53.481Z,28.10
2018-05-08T15:50:20.843Z,28.10
2018-05-08T15:52:47.264Z,28.00
2018-05-08T15:55:13.611Z,28.10
2018-05-08T15:57:41.216Z,27.90
2018-05-08T16:00:07.816Z,28.00
2018-05-08T16:02:34.098Z,28.00
2018-05-08T16:05:01.077Z,27.70
2018-05-08T16:07:27.406Z,27.70
2018-05-08T16:09:54.688Z,27.70
2018-05-08T16:12:21.049Z,27.80
2018-05-08T16:14:47.398Z,27.70
2018-05-08T16:17:14.507Z,27.70
2018-05-08T16:19:40.941Z,27.70
2018-05-08T16:22:07.549Z,27.60
2018-05-08T16:24:33.945Z,27.60
2018-05-08T16:27:00.233Z,27.60
2018-05-08T16:29:26.595Z,27.50
2018-05-08T16:31:53.715Z,27.60
2018-05-08T16:34:20.778Z,27.60
2018-05-08T16:36:47.832Z,27.60
2018-05-08T16:39:14.146Z,27.50
2018-05-08T16:41:40.413Z,27.40
2018-05-08T16:44:06.711Z,27.30
2018-05-08T16:46:33.088Z,27.10
2018-05-08T16:49:00.166Z,26.80
2018-05-08T16:51:26.463Z,26.80
2018-05-08T16:53:52.845Z,26.80
2018-05-08T16:56:19.057Z,26.80
2018-05-08T16:58:45.307Z,26.90
2018-05-08T17:01:12.535Z,26.60
2018-05-08T17:03:39.364Z,26.60
2018-05-08T17:06:05.835Z,26.70
2018-05-08T17:08:32.275Z,26.70
2018-05-08T17:10:58.972Z,26.50
2018-05-08T17:13:25.297Z,26.50
2018-05-08T17:15:51.732Z,26.50
2018-05-08T17:18:18.063Z,26.40
2018-05-08T17:20:45.155Z,26.30
2018-05-08T17:23:12.305Z,26.40
2018-05-08T17:25:39.412Z,26.30
2018-05-08T17:28:05.617Z,26.20
2018-05-08T17:30:32.035Z,26.40
2018-05-08T17:32:58.311Z,26.20
2018-05-08T17:35:24.536Z,26.20
2018-05-08T17:37:50.969Z,26.20
2018-05-08T17:40:17.398Z,26.10
2018-05-08T17:42:43.653Z,26.00
2018-05-08T17:45:10.647Z,26.00
2018-05-08T17:47:36.971Z,25.90
2018-05-08T17:50:04.187Z,25.90
2018-05-08T17:52:30.564Z,25.90
2018-05-08T17:54:56.877Z,25.80
2018-05-08T17:57:23.313Z,25.80
2018-05-08T17:59:50.415Z,25.80
2018-05-08T18:02:16.992Z,25.70
2018-05-08T18:04:43.285Z,25.80
2018-05-08T18:07:09.714Z,25.80
2018-05-08T18:09:36.260Z,25.70
2018-05-08T18:12:03.657Z,25.60
2018-05-08T18:14:30.055Z,25.40
2018-05-08T18:16:56.566Z,25.30
2018-05-08T18:19:23.612Z,25.20
2018-05-08T18:21:49.865Z,25.10
2018-05-08T18:24:16.985Z,24.90
2018-05-08T18:26:43.282Z,24.80
2018-05-08T18:29:09.605Z,24.70
2018-05-08T18:31:37.858Z,24.60
2018-05-08T18:34:04.167Z,24.60
2018-05-08T18:36:30.447Z,24.40
2018-05-08T18:38:58.439Z,24.30
2018-05-08T18:41:24.725Z,24.20
2018-05-08T18:43:50.976Z,24.10
2018-05-08T18:46:17.369Z,23.90
2018-05-08T18:48:43.710Z,23.90
2018-05-08T18:51:09.963Z,23.70
2018-05-08T18:53:36.196Z,23.70
2018-05-08T18:56:03.209Z,23.50
2018-05-08T18:58:29.462Z,23.40
2018-05-08T19:00:55.697Z,23.30
2018-05-08T19:03:22.027Z,23.20
2018-05-08T19:05:49.028Z,23.00
2018-05-08T19:08:16.082Z,23.00
2018-05-08T19:10:42.357Z,23.00
2018-05-08T19:13:08.608Z,22.90
2018-05-08T19:15:40.952Z,22.80
2018-05-08T19:18:07.239Z,22.70
2018-05-08T19:20:33.460Z,22.50
2018-05-08T19:23:00.437Z,22.40
2018-05-08T19:25:26.761Z,22.40
2018-05-08T19:27:53.065Z,22.30
2018-05-08T19:30:26.235Z,22.00
2018-05-08T19:32:52.457Z,22.00
2018-05-08T19:35:25.448Z,21.90
2018-05-08T19:37:57.804Z,21.90
2018-05-08T19:40:24.165Z,21.60
2018-05-08T19:42:51.789Z,21.40
2018-05-08T19:45:18.096Z,21.30
2018-05-08T19:47:44.435Z,21.20
2018-05-08T19:50:10.679Z,21.00
2018-05-08T19:52:37.087Z,21.00
2018-05-08T19:55:03.342Z,21.10
2018-05-08T19:57:29.604Z,21.00
2018-05-08T19:59:56.641Z,20.90
2018-05-08T20:02:22.967Z,20.90
2018-05-08T20:04:49.177Z,20.70
2018-05-08T20:07:15.443Z,20.70
2018-05-08T20:09:42.429Z,20.50
2018-05-08T20:12:09.572Z,20.40
2018-05-08T20:14:35.882Z,20.40
2018-05-08T20:17:07.520Z,20.30
2018-05-08T20:19:34.496Z,20.10
2018-05-08T20:22:01.064Z,20.10
2018-05-08T20:24:27.336Z,20.10
2018-05-08T20:26:53.652Z,19.90
2018-05-08T20:29:20.635Z,19.80
2018-05-08T20:31:46.993Z,19.80
2018-05-08T20:34:13.961Z,19.60
2018-05-08T20:36:42.972Z,19.60
2018-05-08T20:39:09.938Z,19.50
2018-05-08T20:41:36.585Z,19.40
2018-05-08T20:44:02.865Z,19.50
2018-05-08T20:46:29.853Z,19.40
2018-05-08T20:48:56.170Z,19.40
2018-05-08T20:51:23.344Z,19.40
2018-05-08T20:53:49.765Z,19.40
2018-05-08T20:56:16.062Z,19.30
2018-05-08T20:58:43.071Z,19.20
2018-05-08T21:01:09.460Z,19.20
2018-05-08T21:03:35.720Z,19.20
2018-05-08T21:06:02.157Z,19.40
2018-05-08T21:08:28.437Z,19.40
2018-05-08T21:10:54.714Z,19.40
2018-05-08T21:13:21.112Z,19.30
2018-05-08T21:15:47.696Z,19.30
2018-05-08T21:18:14.066Z,19.50
2018-05-08T21:20:40.335Z,19.40
2018-05-08T21:23:06.943Z,19.60
2018-05-08T21:25:33.197Z,19.60
2018-05-08T21:28:05.608Z,19.60
2018-05-08T21:30:37.994Z,19.50
2018-05-08T21:33:05.705Z,19.70
2018-05-08T21:35:31.929Z,19.70
2018-05-08T21:37:58.193Z,19.60
2018-05-08T21:40:25.952Z,19.80
2018-05-08T21:42:52.964Z,19.80
2018-05-08T21:45:19.172Z,19.80
2018-05-08T21:47:45.670Z,19.90
2018-05-08T21:50:12.023Z,20.00
2018-05-08T21:52:39.078Z,19.90
2018-05-08T21:55:05.322Z,19.90
2018-05-08T21:57:31.529Z,19.90
2018-05-08T21:59:57.811Z,19.90
2018-05-08T22:02:24.045Z,19.90
2018-05-08T22:04:50.273Z,19.70
2018-05-08T22:07:16.569Z,19.50
2018-05-08T22:09:42.852Z,19.40
2018-05-08T22:12:09.834Z,19.30
2018-05-08T22:14:36.049Z,19.20
2018-05-08T22:17:02.315Z,19.40
2018-05-08T22:19:28.560Z,19.40
2018-05-08T22:21:55.484Z,19.30
2018-05-08T22:24:21.753Z,19.20
2018-05-08T22:26:48.884Z,19.10
2018-05-08T22:29:15.121Z,19.10
2018-05-08T22:31:41.923Z,19.00
2018-05-08T22:34:08.185Z,19.00
2018-05-08T22:36:34.481Z,18.90
2018-05-08T22:39:00.745Z,18.80
2018-05-08T22:41:26.982Z,18.70
2018-05-08T22:43:53.240Z,18.70
2018-05-08T22:46:26.496Z,18.60
2018-05-08T22:48:52.785Z,18.60
2018-05-08T22:51:19.033Z,18.70
2018-05-08T22:53:45.306Z,18.60
2018-05-08T22:56:11.570Z,18.60
2018-05-08T22:58:37.820Z,18.60
2018-05-08T23:01:04.088Z,18.90
2018-05-08T23:03:30.368Z,19.10
2018-05-08T23:05:56.669Z,19.00
2018-05-08T23:08:22.951Z,19.10
2018-05-08T23:10:49.245Z,19.20
2018-05-08T23:13:15.489Z,19.20
2018-05-08T23:15:41.785Z,19.20
2018-05-08T23:18:08.052Z,19.10
2018-05-08T23:20:34.304Z,19.20
2018-05-08T23:23:01.412Z,19.20
2018-05-08T23:25:27.703Z,19.10
2018-05-08T23:27:53.977Z,19.20
2018-05-08T23:30:20.181Z,19.20
2018-05-08T23:32:46.416Z,19.20
2018-05-08T23:35:12.732Z,19.30
2018-05-08T23:37:39.049Z,19.20
2018-05-08T23:40:05.351Z,19.20
2018-05-08T23:42:31.638Z,19.20
2018-05-08T23:44:57.893Z,19.10
2018-05-08T23:47:24.130Z,19.00
2018-05-08T23:49:51.630Z,19.00
2018-05-08T23:52:18.692Z,18.80
2018-05-08T23:54:44.946Z,18.80
2018-05-08T23:57:11.226Z,18.70
2018-05-08T23:59:37.494Z,18.70
